createdAt,value
2022-08-22T00:00:42.827Z,2.88
2022-08-22T00:02:54.356Z,2.58
2022-08-22T00:03:57.235Z,2.40
2022-08-22T00:07:08.559Z,3.17
2022-08-22T00:10:23.563Z,2.60
2022-08-22T00:13:39.627Z,2.22
2022-08-22T00:16:51.009Z,2.50
2022-08-22T00:20:04.061Z,3.10
2022-08-22T00:23:15.802Z,2.10
2022-08-22T00:26:34.050Z,2.63
2022-08-22T00:29:41.441Z,2.60
2022-08-22T00:32:51.432Z,3.28
2022-08-22T00:36:07.089Z,2.70
2022-08-22T00:39:19.542Z,2.58
2022-08-22T00:42:45.384Z,2.47
2022-08-22T00:46:17.840Z,2.38
2022-08-22T00:49:36.438Z,2.50
2022-08-22T00:53:00.374Z,2.70
2022-08-22T00:56:20.183Z,2.47
2022-08-22T00:59:39.465Z,2.70
2022-08-22T01:03:08.555Z,3.00
2022-08-22T01:06:24.398Z,2.55
2022-08-22T01:09:41.453Z,2.50
2022-08-22T01:13:04.816Z,2.28
2022-08-22T01:16:26.246Z,2.63
2022-08-22T01:20:11.362Z,3.08
2022-08-22T01:23:50.394Z,2.83
2022-08-22T01:27:22.837Z,2.85
2022-08-22T01:31:00.742Z,2.38
2022-08-22T01:34:39.938Z,2.97
2022-08-22T01:37:58.235Z,2.70
2022-08-22T01:41:33.449Z,2.70
2022-08-22T01:45:05.832Z,2.47
2022-08-22T01:48:16.809Z,2.35
2022-08-22T01:51:29.285Z,2.97
2022-08-22T01:54:47.007Z,2.67
2022-08-22T01:57:55.512Z,2.20
2022-08-22T02:01:15.128Z,2.17
2022-08-22T02:04:31.703Z,2.60
2022-08-22T02:07:51.549Z,2.83
2022-08-22T02:11:04.914Z,2.67
2022-08-22T02:14:23.937Z,2.80
2022-08-22T02:17:34.116Z,2.72
2022-08-22T02:20:46.194Z,2.58
2022-08-22T02:23:57.956Z,2.92
2022-08-22T02:27:13.824Z,2.63
2022-08-22T02:30:21.109Z,3.00
2022-08-22T02:33:34.061Z,2.75
2022-08-22T02:36:48.797Z,3.05
2022-08-22T02:40:04.787Z,2.72
2022-08-22T02:43:18.799Z,2.75
2022-08-22T02:46:32.216Z,2.90
2022-08-22T02:49:46.198Z,2.55
2022-08-22T02:52:59.646Z,2.85
2022-08-22T02:56:12.493Z,2.92
2022-08-22T02:59:25.492Z,2.80
2022-08-22T03:02:39.499Z,2.88
2022-08-22T03:05:53.111Z,2.72
2022-08-22T03:09:10.755Z,3.28
2022-08-22T03:12:24.572Z,2.90
2022-08-22T03:15:36.521Z,3.10
2022-08-22T03:18:55.795Z,2.72
2022-08-22T03:22:07.548Z,2.53
2022-08-22T03:25:23.141Z,3.75
2022-08-22T03:28:34.681Z,3.22
2022-08-22T03:31:40.091Z,3.28
2022-08-22T03:35:02.954Z,3.28
2022-08-22T03:38:19.547Z,3.15
2022-08-22T03:41:46.758Z,3.30
2022-08-22T03:45:30.722Z,4.05
2022-08-22T03:49:28.930Z,3.53
2022-08-22T03:53:15.426Z,3.25
2022-08-22T03:56:45.743Z,3.05
2022-08-22T04:00:21.603Z,3.75
2022-08-22T04:03:59.946Z,3.40
2022-08-22T04:07:37.187Z,3.40
2022-08-22T04:11:02.530Z,3.65
2022-08-22T04:14:30.107Z,3.40
2022-08-22T04:18:04.214Z,3.85
2022-08-22T04:21:31.227Z,4.68
2022-08-22T04:25:07.840Z,4.13
2022-08-22T04:28:19.361Z,4.57
2022-08-22T04:31:29.327Z,3.10
2022-08-22T04:34:40.326Z,3.63
2022-08-22T04:37:53.598Z,3.58
2022-08-22T04:41:04.723Z,3.95
2022-08-22T04:44:16.461Z,3.42
2022-08-22T04:47:30.386Z,5.03
2022-08-22T04:50:46.243Z,3.72
2022-08-22T04:54:28.147Z,3.63
2022-08-22T04:57:49.620Z,3.45
2022-08-22T05:01:15.058Z,5.32
2022-08-22T05:04:25.819Z,4.35
2022-08-22T05:07:36.810Z,3.92
2022-08-22T05:10:46.758Z,3.95
2022-08-22T05:13:55.518Z,4.00
2022-08-22T05:17:02.652Z,3.30
2022-08-22T05:20:14.355Z,3.67
2022-08-22T05:23:25.632Z,3.33
2022-08-22T05:26:33.328Z,4.10
2022-08-22T05:29:42.449Z,3.65
2022-08-22T05:32:53.829Z,3.90
2022-08-22T05:36:04.637Z,3.72
2022-08-22T05:39:16.135Z,4.30
2022-08-22T05:42:26.690Z,4.20
2022-08-22T05:45:32.263Z,4.20
2022-08-22T05:48:42.647Z,4.25
2022-08-22T05:51:57.819Z,4.18
2022-08-22T05:55:08.042Z,4.68
2022-08-22T05:58:27.254Z,4.90
2022-08-22T06:01:36.073Z,4.13
2022-08-22T06:04:50.601Z,4.40
2022-08-22T06:08:01.789Z,4.90
2022-08-22T06:11:14.973Z,4.63
2022-08-22T06:14:30.743Z,4.57
2022-08-22T06:17:40.707Z,4.20
2022-08-22T06:20:48.250Z,4.45
2022-08-22T06:23:58.455Z,4.70
2022-08-22T06:27:09.569Z,4.47
2022-08-22T06:30:18.456Z,4.72
2022-08-22T06:33:28.410Z,4.70
2022-08-22T06:36:35.605Z,4.90
2022-08-22T06:39:44.860Z,4.90
2022-08-22T06:42:53.766Z,4.13
2022-08-22T06:45:58.996Z,4.43
2022-08-22T06:49:06.730Z,3.97
2022-08-22T06:52:15.107Z,4.28
2022-08-22T06:55:20.677Z,4.05
2022-08-22T06:58:33.900Z,3.17
2022-08-22T07:01:46.373Z,3.85
2022-08-22T07:04:52.558Z,4.28
2022-08-22T07:07:58.998Z,3.60
2022-08-22T07:11:12.492Z,3.88
2022-08-22T07:14:27.668Z,3.75
2022-08-22T07:17:36.886Z,4.13
2022-08-22T07:20:50.107Z,3.95
2022-08-22T07:24:02.720Z,3.60
2022-08-22T07:27:17.727Z,3.75
2022-08-22T07:30:38.028Z,3.92
2022-08-22T07:33:47.788Z,4.10
2022-08-22T07:36:58.681Z,3.50
2022-08-22T07:40:13.414Z,3.72
2022-08-22T07:43:28.260Z,3.65
2022-08-22T07:46:39.415Z,3.55
2022-08-22T07:49:51.839Z,3.70
2022-08-22T07:53:01.350Z,4.28
2022-08-22T07:56:08.910Z,3.50
2022-08-22T07:59:17.811Z,3.50
2022-08-22T08:02:27.184Z,2.83
2022-08-22T08:05:39.849Z,2.80
2022-08-22T08:08:47.476Z,3.03
2022-08-22T08:11:55.689Z,3.22
2022-08-22T08:15:01.727Z,2.90
2022-08-22T08:18:13.549Z,3.05
2022-08-22T08:21:27.595Z,2.70
2022-08-22T08:24:39.916Z,2.72
2022-08-22T08:28:05.331Z,2.83
2022-08-22T08:31:26.416Z,3.08
2022-08-22T08:34:34.704Z,2.65
2022-08-22T08:37:50.498Z,3.20
2022-08-22T08:41:12.158Z,2.78
2022-08-22T08:44:36.306Z,3.13
2022-08-22T08:47:58.658Z,2.67
2022-08-22T08:51:23.794Z,2.92
2022-08-22T08:54:47.318Z,2.80
2022-08-22T08:58:07.078Z,3.17
2022-08-22T09:01:40.921Z,3.17
2022-08-22T09:05:24.559Z,3.05
2022-08-22T09:09:06.403Z,3.17
2022-08-22T09:12:36.694Z,3.28
2022-08-22T09:16:12.403Z,3.50
2022-08-22T09:19:39.982Z,2.90
2022-08-22T09:23:10.117Z,2.95
2022-08-22T09:26:21.343Z,3.22
2022-08-22T09:29:54.526Z,3.15
2022-08-22T09:33:07.301Z,3.17
2022-08-22T09:36:22.601Z,3.10
2022-08-22T09:39:35.499Z,3.05
2022-08-22T09:42:48.091Z,2.95
2022-08-22T09:46:06.315Z,3.13
2022-08-22T09:49:16.383Z,3.22
2022-08-22T09:52:54.045Z,3.67
2022-08-22T09:56:11.596Z,3.35
2022-08-22T09:59:33.674Z,3.08
2022-08-22T10:02:45.618Z,2.92
2022-08-22T10:06:00.944Z,3.55
2022-08-22T10:09:10.443Z,3.05
2022-08-22T10:12:24.728Z,3.22
2022-08-22T10:15:38.106Z,3.15
2022-08-22T10:18:53.262Z,2.70
2022-08-22T10:22:21.476Z,3.10
2022-08-22T10:25:40.449Z,3.60
2022-08-22T10:28:53.853Z,3.30
2022-08-22T10:32:13.944Z,3.20
2022-08-22T10:35:28.725Z,3.30
2022-08-22T10:38:46.818Z,2.50
2022-08-22T10:42:10.203Z,3.22
2022-08-22T10:45:36.470Z,3.08
2022-08-22T10:48:58.145Z,3.30
2022-08-22T10:52:15.643Z,3.40
2022-08-22T10:55:27.816Z,3.65
2022-08-22T10:58:38.632Z,3.15
2022-08-22T11:01:55.115Z,3.10
2022-08-22T11:05:32.566Z,3.10
2022-08-22T11:09:06.752Z,3.42
2022-08-22T11:12:24.004Z,2.78
2022-08-22T11:15:53.901Z,2.50
2022-08-22T11:19:16.267Z,3.03
2022-08-22T11:22:35.024Z,3.08
2022-08-22T11:25:53.905Z,2.95
2022-08-22T11:29:17.192Z,3.03
2022-08-22T11:32:33.483Z,3.00
2022-08-22T11:35:44.273Z,2.92
2022-08-22T11:39:01.179Z,2.90
2022-08-22T11:42:14.723Z,2.45
2022-08-22T11:45:32.999Z,2.88
2022-08-22T11:48:48.655Z,2.60
2022-08-22T11:52:09.440Z,3.33
2022-08-22T11:55:32.555Z,2.60
2022-08-22T11:58:48.775Z,2.95
2022-08-22T12:02:01.100Z,2.40
2022-08-22T12:05:19.676Z,2.90
2022-08-22T12:09:01.595Z,2.95
2022-08-22T12:12:49.746Z,2.90
2022-08-22T12:16:05.765Z,2.83
2022-08-22T12:19:23.057Z,2.88
2022-08-22T12:23:01.659Z,2.70
2022-08-22T12:26:15.388Z,2.80
2022-08-22T12:29:40.033Z,2.33
2022-08-22T12:33:23.728Z,2.35
2022-08-22T12:36:45.972Z,2.40
2022-08-22T12:40:10.425Z,2.33
2022-08-22T12:43:32.316Z,2.33
2022-08-22T12:46:52.944Z,2.55
2022-08-22T12:50:36.636Z,2.22
2022-08-22T12:54:08.494Z,2.22
2022-08-22T12:57:25.145Z,1.92
2022-08-22T13:00:35.545Z,2.20
2022-08-22T13:03:49.554Z,2.50
2022-08-22T13:07:02.550Z,2.40
2022-08-22T13:10:31.504Z,1.98
2022-08-22T13:13:42.920Z,2.35
2022-08-22T13:17:10.214Z,2.22
2022-08-22T13:20:35.611Z,2.25
2022-08-22T13:23:45.373Z,2.25
2022-08-22T13:26:56.767Z,1.85
2022-08-22T13:30:03.964Z,2.55
2022-08-22T13:33:13.234Z,2.47
2022-08-22T13:36:22.038Z,2.10
2022-08-22T13:39:30.984Z,2.40
2022-08-22T13:42:47.847Z,2.15
2022-08-22T13:45:57.050Z,2.40
2022-08-22T13:49:13.113Z,1.90
2022-08-22T13:52:30.473Z,2.20
2022-08-22T13:55:45.251Z,2.05
2022-08-22T13:58:59.250Z,2.10
2022-08-22T14:02:15.192Z,2.00
2022-08-22T14:05:27.850Z,2.20
2022-08-22T14:08:38.324Z,2.35
2022-08-22T14:11:56.627Z,1.77
2022-08-22T14:15:05.931Z,2.47
2022-08-22T14:18:14.766Z,2.33
2022-08-22T14:21:33.477Z,2.22
2022-08-22T14:24:55.650Z,2.08
2022-08-22T14:28:06.435Z,2.13
2022-08-22T14:31:15.263Z,2.30
2022-08-22T14:34:21.792Z,2.25
2022-08-22T14:37:32.576Z,2.10
2022-08-22T14:40:43.232Z,2.60
2022-08-22T14:43:53.588Z,2.55
2022-08-22T14:47:04.131Z,2.33
2022-08-22T14:50:31.953Z,2.20
2022-08-22T14:53:41.895Z,2.40
2022-08-22T14:56:49.866Z,1.92
2022-08-22T14:59:55.385Z,2.10
2022-08-22T15:03:24.361Z,2.33
2022-08-22T15:06:37.242Z,2.38
2022-08-22T15:09:47.835Z,2.20
2022-08-22T15:12:57.358Z,2.30
2022-08-22T15:16:08.081Z,2.00
2022-08-22T15:19:26.083Z,2.50
2022-08-22T15:22:34.932Z,2.80
2022-08-22T15:25:47.022Z,1.95
2022-08-22T15:29:04.500Z,2.00
2022-08-22T15:32:09.634Z,2.05
2022-08-22T15:35:30.185Z,1.98
2022-08-22T15:38:38.756Z,2.30
2022-08-22T15:41:51.071Z,2.33
2022-08-22T15:44:58.016Z,2.50
2022-08-22T15:48:05.373Z,2.42
2022-08-22T15:51:13.796Z,2.00
2022-08-22T15:54:24.383Z,2.22
2022-08-22T15:57:35.467Z,2.10
2022-08-22T16:00:46.190Z,2.40
2022-08-22T16:03:58.439Z,2.30
2022-08-22T16:07:05.438Z,2.22
2022-08-22T16:10:30.648Z,2.33
2022-08-22T16:13:42.889Z,1.98
2022-08-22T16:17:01.700Z,2.15
2022-08-22T16:20:43.711Z,2.25
2022-08-22T16:24:25.568Z,2.42
2022-08-22T16:27:31.838Z,1.90
2022-08-22T16:30:40.572Z,2.28
2022-08-22T16:33:47.654Z,2.10
2022-08-22T16:36:56.846Z,2.17
2022-08-22T16:40:15.570Z,2.30
2022-08-22T16:43:21.870Z,2.08
2022-08-22T16:46:34.603Z,2.28
2022-08-22T16:49:58.330Z,2.55
2022-08-22T16:53:10.786Z,2.15
2022-08-22T16:56:25.742Z,2.40
2022-08-22T16:59:50.060Z,2.05
2022-08-22T17:03:12.572Z,2.42
2022-08-22T17:06:32.825Z,2.10
2022-08-22T17:09:55.770Z,1.95
2022-08-22T17:13:16.852Z,2.00
2022-08-22T17:16:38.629Z,2.20
2022-08-22T17:19:57.650Z,2.40
2022-08-22T17:23:13.394Z,2.33
2022-08-22T17:26:28.754Z,2.13
2022-08-22T17:29:46.759Z,2.08
2022-08-22T17:33:08.587Z,2.05
2022-08-22T17:36:26.987Z,2.58
2022-08-22T17:40:16.081Z,2.00
2022-08-22T17:43:50.833Z,2.20
2022-08-22T17:47:03.751Z,2.10
2022-08-22T17:50:16.079Z,2.10
2022-08-22T17:53:33.168Z,2.00
2022-08-22T17:56:54.012Z,2.30
2022-08-22T18:00:25.960Z,2.25
2022-08-22T18:03:34.846Z,2.10
2022-08-22T18:06:55.418Z,2.10
2022-08-22T18:10:08.917Z,2.03
2022-08-22T18:13:22.796Z,2.10
2022-08-22T18:16:31.268Z,2.10
2022-08-22T18:19:44.471Z,2.28
2022-08-22T18:22:54.662Z,2.10
2022-08-22T18:26:15.410Z,1.90
2022-08-22T18:29:26.307Z,2.22
2022-08-22T18:32:36.150Z,1.88
2022-08-22T18:35:49.871Z,1.88
2022-08-22T18:39:05.134Z,1.90
2022-08-22T18:42:19.832Z,2.00
2022-08-22T18:46:11.503Z,1.83
2022-08-22T18:49:54.872Z,2.10
2022-08-22T18:53:00.527Z,2.30
2022-08-22T18:56:17.291Z,2.10
2022-08-22T18:59:47.127Z,1.90
2022-08-22T19:03:17.344Z,2.00
2022-08-22T19:06:55.619Z,2.05
2022-08-22T19:10:33.459Z,2.17
2022-08-22T19:14:05.786Z,2.47
2022-08-22T19:17:40.928Z,1.88
2022-08-22T19:21:02.760Z,1.92
2022-08-22T19:24:40.073Z,1.65
2022-08-22T19:27:47.223Z,2.00
2022-08-22T19:30:53.432Z,2.00
2022-08-22T19:34:17.432Z,2.38
2022-08-22T19:37:31.077Z,1.95
2022-08-22T19:41:08.680Z,1.95
2022-08-22T19:44:32.983Z,2.05
2022-08-22T19:47:41.486Z,1.80
2022-08-22T19:50:46.208Z,2.17
2022-08-22T19:54:08.537Z,2.33
2022-08-22T19:57:23.147Z,1.92
2022-08-22T20:00:51.524Z,2.38
2022-08-22T20:04:06.002Z,2.28
2022-08-22T20:07:18.745Z,1.95
2022-08-22T20:10:32.417Z,2.20
2022-08-22T20:13:41.711Z,2.50
2022-08-22T20:17:11.446Z,2.95
2022-08-22T20:20:36.097Z,2.55
2022-08-22T20:23:41.283Z,2.15
2022-08-22T20:27:12.054Z,2.58
2022-08-22T20:30:21.608Z,2.20
2022-08-22T20:33:33.504Z,2.50
2022-08-22T20:36:39.634Z,2.47
2022-08-22T20:39:58.717Z,2.70
2022-08-22T20:43:13.293Z,2.42
2022-08-22T20:46:43.536Z,2.40
2022-08-22T20:49:51.939Z,2.70
2022-08-22T20:53:10.221Z,2.78
2022-08-22T20:56:19.399Z,2.60
2022-08-22T20:59:30.003Z,2.70
2022-08-22T21:02:40.523Z,3.00
2022-08-22T21:05:47.410Z,2.90
2022-08-22T21:09:12.503Z,3.00
2022-08-22T21:12:16.535Z,3.30
2022-08-22T21:15:32.198Z,2.67
2022-08-22T21:18:41.144Z,2.70
2022-08-22T21:21:46.357Z,2.90
2022-08-22T21:24:51.348Z,3.05
2022-08-22T21:27:56.547Z,2.65
2022-08-22T21:31:03.334Z,2.63
2022-08-22T21:34:16.505Z,2.75
2022-08-22T21:37:29.131Z,3.17
2022-08-22T21:40:37.513Z,3.03
2022-08-22T21:43:42.285Z,3.05
2022-08-22T21:46:53.199Z,2.55
2022-08-22T21:50:09.556Z,2.58
2022-08-22T21:53:28.258Z,2.67
2022-08-22T21:56:33.594Z,3.08
2022-08-22T21:59:52.131Z,2.70
2022-08-22T22:03:04.199Z,2.63
2022-08-22T22:06:13.621Z,2.50
2022-08-22T22:09:18.935Z,2.53
2022-08-22T22:12:24.425Z,2.60
2022-08-22T22:15:32.127Z,2.55
2022-08-22T22:18:39.101Z,2.30
2022-08-22T22:21:45.266Z,2.40
2022-08-22T22:24:50.178Z,2.45
2022-08-22T22:27:55.315Z,2.58
2022-08-22T22:31:03.984Z,2.00
2022-08-22T22:34:08.655Z,2.15
2022-08-22T22:37:15.041Z,2.08
2022-08-22T22:40:21.398Z,2.42
2022-08-22T22:43:26.138Z,1.88
2022-08-22T22:46:30.874Z,2.05
2022-08-22T22:49:35.955Z,2.28
2022-08-22T22:52:42.077Z,2.05
2022-08-22T22:55:59.595Z,2.40
2022-08-22T22:59:13.477Z,1.98
2022-08-22T23:02:20.931Z,1.90
2022-08-22T23:05:25.277Z,1.90
2022-08-22T23:08:33.044Z,1.70
2022-08-22T23:11:37.666Z,1.90
2022-08-22T23:14:42.772Z,2.45
2022-08-22T23:17:47.147Z,2.17
2022-08-22T23:20:51.754Z,2.17
2022-08-22T23:23:59.220Z,2.05
2022-08-22T23:27:07.111Z,2.10
2022-08-22T23:30:15.785Z,2.03
2022-08-22T23:33:20.465Z,2.38
2022-08-22T23:36:25.690Z,1.83
2022-08-22T23:39:33.141Z,2.10
2022-08-22T23:42:38.113Z,2.00
2022-08-22T23:45:43.157Z,2.00
2022-08-22T23:48:48.466Z,2.53
2022-08-22T23:51:54.503Z,2.20
2022-08-22T23:55:00.976Z,2.13
2022-08-22T23:58:05.624Z,2.45
